createdAt,value
2022-12-18T00:01:34.949Z,-9.09
2022-12-18T00:04:02.933Z,-9.23
2022-12-18T00:06:30.175Z,-9.13
2022-12-18T00:08:57.744Z,-9.15
2022-12-18T00:11:25.565Z,-9.22
2022-12-18T00:13:52.154Z,-9.19
2022-12-18T00:16:21.453Z,-8.90
2022-12-18T00:18:52.106Z,-8.91
2022-12-18T00:21:18.956Z,-8.93
2022-12-18T00:23:46.082Z,-8.80
2022-12-18T00:26:31.987Z,-8.82
2022-12-18T00:29:06.597Z,-8.83
2022-12-18T00:31:33.275Z,-8.94
2022-12-18T00:34:01.337Z,-8.94
2022-12-18T00:36:29.039Z,-8.88
2022-12-18T00:38:56.311Z,-8.91
2022-12-18T00:41:41.528Z,-8.80
2022-12-18T00:44:08.601Z,-8.62
2022-12-18T00:46:35.114Z,-8.94
2022-12-18T00:49:01.919Z,-8.95
2022-12-18T00:51:28.455Z,-8.83
2022-12-18T00:53:54.862Z,-8.84
2022-12-18T00:56:21.581Z,-8.88
2022-12-18T00:58:48.040Z,-8.96
2022-12-18T01:01:14.552Z,-8.95
2022-12-18T01:03:41.785Z,-8.89
2022-12-18T01:06:09.767Z,-9.26
2022-12-18T01:08:36.256Z,-9.39
2022-12-18T01:11:11.086Z,-9.24
2022-12-18T01:13:37.879Z,-9.59
2022-12-18T01:16:04.790Z,-9.38
2022-12-18T01:18:31.606Z,-9.19
2022-12-18T01:20:58.973Z,-9.42
2022-12-18T01:23:28.469Z,-9.63
2022-12-18T01:25:54.879Z,-9.70
2022-12-18T01:28:21.283Z,-9.64
2022-12-18T01:30:47.693Z,-9.70
2022-12-18T01:33:15.115Z,-9.48
2022-12-18T01:35:42.882Z,-9.24
2022-12-18T01:38:09.637Z,-9.13
2022-12-18T01:40:36.254Z,-9.05
2022-12-18T01:43:03.200Z,-8.85
2022-12-18T01:45:30.681Z,-8.67
2022-12-18T01:48:00.288Z,-8.48
2022-12-18T01:50:33.515Z,-8.65
2022-12-18T01:53:05.028Z,-8.60
2022-12-18T01:55:33.124Z,-8.70
2022-12-18T01:58:01.263Z,-8.68
2022-12-18T02:00:28.120Z,-8.56
2022-12-18T02:02:55.357Z,-8.51
2022-12-18T02:05:35.026Z,-8.72
2022-12-18T02:08:02.424Z,-8.98
2022-12-18T02:10:36.702Z,-8.86
2022-12-18T02:13:11.987Z,-8.61
2022-12-18T02:15:38.779Z,-8.66
2022-12-18T02:18:11.348Z,-8.45
2022-12-18T02:20:44.456Z,-8.32
2022-12-18T02:23:27.762Z,-8.32
2022-12-18T02:26:20.803Z,-8.29
2022-12-18T02:28:55.521Z,-8.29
2022-12-18T02:31:24.746Z,-8.40
2022-12-18T02:33:53.312Z,-8.38
2022-12-18T02:36:23.625Z,-8.48
2022-12-18T02:38:51.153Z,-8.35
2022-12-18T02:41:17.933Z,-8.69
2022-12-18T02:44:05.425Z,-8.72
2022-12-18T02:46:35.503Z,-8.85
2022-12-18T02:49:16.311Z,-8.56
2022-12-18T02:51:51.496Z,-8.45
2022-12-18T02:54:38.652Z,-8.44
2022-12-18T02:57:17.415Z,-8.38
2022-12-18T02:59:50.819Z,-8.29
2022-12-18T03:02:20.529Z,-8.23
2022-12-18T03:04:55.811Z,-8.45
2022-12-18T03:07:33.332Z,-8.58
2022-12-18T03:10:01.345Z,-8.45
2022-12-18T03:12:31.637Z,-8.44
2022-12-18T03:15:04.510Z,-8.37
2022-12-18T03:17:32.777Z,-8.52
2022-12-18T03:20:02.335Z,-8.56
2022-12-18T03:22:34.626Z,-8.85
2022-12-18T03:25:03.099Z,-9.01
2022-12-18T03:27:30.978Z,-8.87
2022-12-18T03:30:09.941Z,-8.76
2022-12-18T03:32:45.580Z,-8.74
2022-12-18T03:35:14.507Z,-8.92
2022-12-18T03:37:41.057Z,-9.04
2022-12-18T03:40:08.781Z,-8.71
2022-12-18T03:42:44.950Z,-8.53
2022-12-18T03:45:11.429Z,-8.53
2022-12-18T03:47:43.893Z,-8.67
2022-12-18T03:50:21.776Z,-8.72
2022-12-18T03:52:56.631Z,-8.57
2022-12-18T03:55:24.495Z,-8.62
2022-12-18T03:57:58.522Z,-8.62
2022-12-18T04:00:29.212Z,-8.77
2022-12-18T04:03:05.696Z,-9.06
2022-12-18T04:05:39.787Z,-8.87
2022-12-18T04:08:08.014Z,-8.73
2022-12-18T04:10:38.161Z,-8.60
2022-12-18T04:13:04.866Z,-8.71
2022-12-18T04:15:32.920Z,-8.85
2022-12-18T04:17:59.536Z,-8.88
2022-12-18T04:20:32.641Z,-9.12
2022-12-18T04:22:59.077Z,-8.97
2022-12-18T04:25:25.867Z,-8.97
2022-12-18T04:28:04.522Z,-9.08
2022-12-18T04:30:30.938Z,-9.06
2022-12-18T04:32:57.934Z,-9.00
2022-12-18T04:35:24.950Z,-8.82
2022-12-18T04:37:51.846Z,-8.81
2022-12-18T04:40:18.323Z,-8.98
2022-12-18T04:42:47.103Z,-8.84
2022-12-18T04:45:13.584Z,-8.87
2022-12-18T04:47:40.119Z,-8.93
2022-12-18T04:50:06.818Z,-9.05
2022-12-18T04:52:33.335Z,-9.33
2022-12-18T04:54:59.868Z,-9.31
2022-12-18T04:57:27.059Z,-9.05
2022-12-18T04:59:53.732Z,-8.99
2022-12-18T05:02:20.335Z,-9.34
2022-12-18T05:04:46.795Z,-9.32
2022-12-18T05:07:13.191Z,-9.25
2022-12-18T05:09:39.566Z,-9.29
2022-12-18T05:12:06.176Z,-9.58
2022-12-18T05:14:32.608Z,-9.55
2022-12-18T05:17:01.023Z,-9.69
2022-12-18T05:19:27.798Z,-9.69
2022-12-18T05:21:54.217Z,-9.45
2022-12-18T05:24:20.633Z,-9.28
2022-12-18T05:26:47.411Z,-9.54
2022-12-18T05:29:14.069Z,-9.72
2022-12-18T05:31:40.856Z,-9.68
2022-12-18T05:34:08.879Z,-9.78
2022-12-18T05:36:35.459Z,-9.39
2022-12-18T05:39:01.913Z,-9.17
2022-12-18T05:41:28.464Z,-9.39
2022-12-18T05:43:55.132Z,-9.85
2022-12-18T05:46:21.856Z,-9.53
2022-12-18T05:48:49.123Z,-9.11
2022-12-18T05:51:16.757Z,-9.42
2022-12-18T05:53:44.038Z,-9.64
2022-12-18T05:56:15.637Z,-9.48
2022-12-18T05:58:42.655Z,-9.17
2022-12-18T06:01:14.837Z,-8.88
2022-12-18T06:03:41.627Z,-8.99
2022-12-18T06:06:19.481Z,-9.01
2022-12-18T06:08:46.712Z,-8.94
2022-12-18T06:11:14.180Z,-8.98
2022-12-18T06:13:40.836Z,-8.98
2022-12-18T06:16:09.354Z,-9.18
2022-12-18T06:18:35.812Z,-9.39
2022-12-18T06:21:02.822Z,-9.34
2022-12-18T06:23:29.323Z,-9.14
2022-12-18T06:25:56.249Z,-9.31
2022-12-18T06:28:22.702Z,-9.35
2022-12-18T06:30:49.508Z,-9.27
2022-12-18T06:33:16.220Z,-9.21
2022-12-18T06:35:42.806Z,-9.48
2022-12-18T06:38:09.505Z,-9.50
2022-12-18T06:40:37.535Z,-9.51
2022-12-18T06:43:04.002Z,-9.57
2022-12-18T06:45:30.469Z,-9.55
2022-12-18T06:47:56.875Z,-9.70
2022-12-18T06:50:23.920Z,-9.57
2022-12-18T06:52:50.343Z,-9.44
2022-12-18T06:55:16.971Z,-9.47
2022-12-18T06:57:43.419Z,-9.34
2022-12-18T07:00:10.375Z,-9.31
2022-12-18T07:02:36.975Z,-9.23
2022-12-18T07:05:10.320Z,-9.13
2022-12-18T07:07:37.475Z,-9.04
2022-12-18T07:10:04.091Z,-9.02
2022-12-18T07:12:31.054Z,-9.01
2022-12-18T07:14:57.502Z,-9.01
2022-12-18T07:17:24.005Z,-9.14
2022-12-18T07:19:50.647Z,-9.47
2022-12-18T07:22:17.438Z,-9.41
2022-12-18T07:24:43.943Z,-9.48
2022-12-18T07:27:15.287Z,-9.53
2022-12-18T07:29:42.047Z,-9.73
2022-12-18T07:32:09.617Z,-9.51
2022-12-18T07:34:38.208Z,-9.64
2022-12-18T07:37:05.498Z,-9.65
2022-12-18T07:39:32.156Z,-9.55
2022-12-18T07:42:18.083Z,-9.37
2022-12-18T07:44:45.083Z,-9.26
2022-12-18T07:47:12.287Z,-9.06
2022-12-18T07:49:39.115Z,-8.94
2022-12-18T07:52:05.618Z,-8.98
2022-12-18T07:54:32.196Z,-9.03
2022-12-18T07:57:00.169Z,-9.25
2022-12-18T07:59:27.738Z,-9.38
2022-12-18T08:01:54.657Z,-9.71
2022-12-18T08:04:21.481Z,-9.47
2022-12-18T08:06:48.522Z,-9.22
2022-12-18T08:09:15.249Z,-9.26
2022-12-18T08:11:41.863Z,-9.19
2022-12-18T08:14:08.443Z,-9.10
2022-12-18T08:16:35.009Z,-9.01
2022-12-18T08:19:01.545Z,-8.97
2022-12-18T08:21:29.016Z,-8.94
2022-12-18T08:23:56.602Z,-8.73
2022-12-18T08:26:23.487Z,-8.81
2022-12-18T08:28:50.862Z,-8.85
2022-12-18T08:31:17.721Z,-8.65
2022-12-18T08:33:44.488Z,-8.61
2022-12-18T08:36:17.400Z,-8.44
2022-12-18T08:38:49.125Z,-8.44
2022-12-18T08:41:17.000Z,-8.38
2022-12-18T08:44:03.100Z,-8.30
2022-12-18T08:46:41.791Z,-8.29
2022-12-18T08:49:09.106Z,-8.22
2022-12-18T08:51:37.006Z,-8.30
2022-12-18T08:54:04.563Z,-8.48
2022-12-18T08:56:33.988Z,-8.54
2022-12-18T08:59:00.566Z,-8.39
2022-12-18T09:01:27.666Z,-8.36
2022-12-18T09:03:54.256Z,-8.38
2022-12-18T09:06:21.804Z,-8.27
2022-12-18T09:08:48.345Z,-8.12
2022-12-18T09:11:25.023Z,-8.12
2022-12-18T09:13:51.817Z,-8.27
2022-12-18T09:16:18.585Z,-8.15
2022-12-18T09:18:45.043Z,-8.25
2022-12-18T09:21:16.087Z,-8.18
2022-12-18T09:23:42.759Z,-8.27
2022-12-18T09:26:09.414Z,-8.12
2022-12-18T09:28:35.869Z,-8.30
2022-12-18T09:31:07.631Z,-8.32
2022-12-18T09:33:34.904Z,-8.27
2022-12-18T09:36:02.573Z,-7.80
2022-12-18T09:38:29.166Z,-7.57
2022-12-18T09:41:00.345Z,-7.54
2022-12-18T09:43:29.312Z,-7.55
2022-12-18T09:46:07.517Z,-7.36
2022-12-18T09:48:39.417Z,-7.35
2022-12-18T09:51:11.888Z,-7.40
2022-12-18T09:53:40.992Z,-7.39
2022-12-18T09:56:12.245Z,-7.28
2022-12-18T09:58:43.267Z,-7.37
2022-12-18T10:01:15.575Z,-7.30
2022-12-18T10:03:45.004Z,-7.21
2022-12-18T10:06:30.399Z,-7.11
2022-12-18T10:09:03.939Z,-7.00
2022-12-18T10:11:44.537Z,-7.09
2022-12-18T10:14:16.601Z,-6.93
2022-12-18T10:17:01.726Z,-6.92
2022-12-18T10:19:35.774Z,-6.84
2022-12-18T10:22:17.514Z,-6.82
2022-12-18T10:24:55.689Z,-6.84
2022-12-18T10:27:29.719Z,-6.80
2022-12-18T10:29:56.709Z,-6.73
2022-12-18T10:32:27.445Z,-6.75
2022-12-18T10:35:00.175Z,-6.61
2022-12-18T10:37:28.764Z,-6.61
2022-12-18T10:40:19.872Z,-6.66
2022-12-18T10:43:16.026Z,-6.62
2022-12-18T10:45:43.125Z,-6.42
2022-12-18T10:48:20.232Z,-6.38
2022-12-18T10:51:10.216Z,-6.35
2022-12-18T10:53:37.033Z,-6.29
2022-12-18T10:56:05.470Z,-6.09
2022-12-18T10:58:33.537Z,-6.00
2022-12-18T11:01:23.499Z,-5.87
2022-12-18T11:04:01.654Z,-5.80
2022-12-18T11:06:29.158Z,-5.69
2022-12-18T11:09:08.017Z,-5.67
2022-12-18T11:11:39.831Z,-5.60
2022-12-18T11:14:07.568Z,-5.59
2022-12-18T11:16:36.761Z,-5.38
2022-12-18T11:19:14.380Z,-5.42
2022-12-18T11:21:42.388Z,-5.33
2022-12-18T11:24:18.684Z,-5.14
2022-12-18T11:26:45.112Z,-4.95
2022-12-18T11:29:16.837Z,-4.85
2022-12-18T11:31:44.804Z,-4.88
2022-12-18T11:34:31.501Z,-4.90
2022-12-18T11:37:02.382Z,-4.73
2022-12-18T11:39:49.048Z,-4.50
2022-12-18T11:42:20.883Z,-4.56
2022-12-18T11:45:07.561Z,-4.40
2022-12-18T11:47:40.047Z,-4.37
2022-12-18T11:50:13.618Z,-4.29
2022-12-18T11:52:41.079Z,-4.38
2022-12-18T11:55:33.350Z,-4.28
2022-12-18T11:58:18.572Z,-4.18
2022-12-18T12:00:50.580Z,-3.99
2022-12-18T12:03:25.146Z,-4.16
2022-12-18T12:06:08.552Z,-4.07
2022-12-18T12:08:53.981Z,-3.79
2022-12-18T12:11:27.061Z,-3.96
2022-12-18T12:14:04.614Z,-3.66
2022-12-18T12:16:36.288Z,-3.80
2022-12-18T12:19:07.576Z,-3.75
2022-12-18T12:21:42.051Z,-3.71
2022-12-18T12:24:08.465Z,-3.59
2022-12-18T12:26:42.284Z,-3.59
2022-12-18T12:29:20.844Z,-3.53
2022-12-18T12:31:47.693Z,-3.66
2022-12-18T12:34:20.296Z,-3.61
2022-12-18T12:36:54.611Z,-3.59
2022-12-18T12:39:24.024Z,-3.47
2022-12-18T12:42:08.989Z,-3.40
2022-12-18T12:44:51.251Z,-3.46
2022-12-18T12:47:29.440Z,-3.28
2022-12-18T12:49:57.619Z,-3.30
2022-12-18T12:52:40.869Z,-3.36
2022-12-18T12:55:14.962Z,-3.26
2022-12-18T12:57:46.692Z,-3.08
2022-12-18T13:00:20.128Z,-3.02
2022-12-18T13:02:59.410Z,-3.05
2022-12-18T13:05:35.051Z,-2.94
2022-12-18T13:08:09.637Z,-3.23
2022-12-18T13:10:43.540Z,-3.14
2022-12-18T13:13:11.540Z,-3.26
2022-12-18T13:15:48.564Z,-3.29
2022-12-18T13:18:18.064Z,-3.08
2022-12-18T13:20:55.222Z,-3.27
2022-12-18T13:23:26.695Z,-3.21
2022-12-18T13:25:57.294Z,-3.16
2022-12-18T13:28:42.659Z,-3.12
2022-12-18T13:31:09.187Z,-2.95
2022-12-18T13:33:35.597Z,-3.22
2022-12-18T13:36:26.366Z,-3.29
2022-12-18T13:39:11.968Z,-3.18
2022-12-18T13:41:38.929Z,-3.14
2022-12-18T13:44:24.195Z,-3.05
2022-12-18T13:46:53.399Z,-3.05
2022-12-18T13:49:24.824Z,-3.09
2022-12-18T13:51:52.595Z,-2.94
2022-12-18T13:54:21.208Z,-2.85
2022-12-18T13:56:49.361Z,-2.72
2022-12-18T13:59:18.954Z,-2.72
2022-12-18T14:01:51.366Z,-2.64
2022-12-18T14:04:22.644Z,-2.87
2022-12-18T14:06:51.133Z,-2.98
2022-12-18T14:09:24.675Z,-2.85
2022-12-18T14:11:51.905Z,-2.64
2022-12-18T14:14:18.956Z,-2.64
2022-12-18T14:16:47.580Z,-2.53
2022-12-18T14:19:18.881Z,-2.62
2022-12-18T14:21:49.071Z,-2.60
2022-12-18T14:24:19.474Z,-2.43
2022-12-18T14:26:46.626Z,-2.39
2022-12-18T14:29:28.047Z,-2.35
2022-12-18T14:32:08.430Z,-2.38
2022-12-18T14:34:38.629Z,-2.46
2022-12-18T14:37:05.460Z,-2.92
2022-12-18T14:39:31.914Z,-2.84
2022-12-18T14:41:58.338Z,-2.71
2022-12-18T14:44:25.311Z,-2.73
2022-12-18T14:46:51.862Z,-3.19
2022-12-18T14:49:24.410Z,-3.40
2022-12-18T14:51:52.997Z,-3.17
2022-12-18T14:54:20.760Z,-3.06
2022-12-18T14:56:49.298Z,-3.05
2022-12-18T14:59:22.338Z,-3.19
2022-12-18T15:02:02.059Z,-3.41
2022-12-18T15:04:36.896Z,-3.62
2022-12-18T15:07:09.933Z,-3.50
2022-12-18T15:09:37.221Z,-3.56
2022-12-18T15:12:03.964Z,-3.65
2022-12-18T15:14:35.820Z,-3.71
2022-12-18T15:17:04.508Z,-3.55
2022-12-18T15:19:39.782Z,-3.46
2022-12-18T15:22:17.904Z,-3.75
2022-12-18T15:24:44.366Z,-3.83
2022-12-18T15:27:25.256Z,-4.11
2022-12-18T15:30:10.073Z,-4.25
2022-12-18T15:32:37.588Z,-4.11
2022-12-18T15:35:24.299Z,-3.81
2022-12-18T15:37:51.614Z,-3.77
2022-12-18T15:40:22.420Z,-3.72
2022-12-18T15:43:08.324Z,-4.33
2022-12-18T15:45:36.633Z,-4.00
2022-12-18T15:48:03.122Z,-4.03
2022-12-18T15:50:29.803Z,-4.10
2022-12-18T15:52:57.485Z,-4.00
2022-12-18T15:55:43.167Z,-3.96
2022-12-18T15:58:10.796Z,-4.24
2022-12-18T16:00:38.829Z,-4.57
2022-12-18T16:03:05.618Z,-4.50
2022-12-18T16:05:32.565Z,-4.30
2022-12-18T16:07:59.202Z,-4.19
2022-12-18T16:10:26.084Z,-4.16
2022-12-18T16:12:52.739Z,-4.37
2022-12-18T16:15:24.308Z,-4.40
2022-12-18T16:17:51.298Z,-4.34
2022-12-18T16:20:18.849Z,-4.04
2022-12-18T16:22:46.875Z,-3.91
2022-12-18T16:25:17.976Z,-4.01
2022-12-18T16:27:44.410Z,-4.16
2022-12-18T16:30:16.062Z,-4.13
2022-12-18T16:32:42.845Z,-4.06
2022-12-18T16:35:13.505Z,-4.00
2022-12-18T16:37:40.644Z,-3.86
2022-12-18T16:40:09.823Z,-3.90
2022-12-18T16:42:37.369Z,-4.01
2022-12-18T16:45:04.508Z,-3.94
2022-12-18T16:47:30.942Z,-3.90
2022-12-18T16:49:57.353Z,-3.96
2022-12-18T16:52:24.067Z,-3.99
2022-12-18T16:54:50.439Z,-4.07
2022-12-18T16:57:18.458Z,-4.03
2022-12-18T16:59:45.111Z,-3.92
2022-12-18T17:02:13.881Z,-3.93
2022-12-18T17:04:40.351Z,-3.88
2022-12-18T17:07:06.776Z,-3.82
2022-12-18T17:09:33.526Z,-3.77
2022-12-18T17:12:04.007Z,-3.70
2022-12-18T17:14:31.943Z,-3.59
2022-12-18T17:17:20.312Z,-3.55
2022-12-18T17:19:46.495Z,-3.59
2022-12-18T17:22:12.981Z,-3.57
2022-12-18T17:24:39.454Z,-3.49
2022-12-18T17:27:05.993Z,-3.50
2022-12-18T17:29:32.541Z,-3.30
2022-12-18T17:32:00.289Z,-3.35
2022-12-18T17:34:27.250Z,-3.29
2022-12-18T17:36:53.803Z,-3.25
2022-12-18T17:39:20.963Z,-3.20
2022-12-18T17:41:47.786Z,-3.19
2022-12-18T17:44:14.317Z,-3.16
2022-12-18T17:46:40.918Z,-3.14
2022-12-18T17:49:07.403Z,-3.12
2022-12-18T17:51:34.025Z,-3.18
2022-12-18T17:54:00.534Z,-3.28
2022-12-18T17:56:27.512Z,-3.13
2022-12-18T17:58:54.071Z,-3.21
2022-12-18T18:01:21.840Z,-3.21
2022-12-18T18:03:51.539Z,-3.05
2022-12-18T18:06:20.356Z,-3.01
2022-12-18T18:08:46.845Z,-3.05
2022-12-18T18:11:33.114Z,-3.00
2022-12-18T18:14:03.109Z,-3.05
2022-12-18T18:16:34.568Z,-3.05
2022-12-18T18:19:01.569Z,-3.07
2022-12-18T18:21:28.722Z,-3.04
2022-12-18T18:23:55.711Z,-3.12
2022-12-18T18:26:22.542Z,-3.03
2022-12-18T18:28:53.856Z,-3.00
2022-12-18T18:31:20.927Z,-3.02
2022-12-18T18:33:47.784Z,-3.01
2022-12-18T18:36:14.599Z,-3.04
2022-12-18T18:38:45.356Z,-2.92
2022-12-18T18:41:14.655Z,-3.01
2022-12-18T18:43:41.680Z,-3.02
2022-12-18T18:46:11.279Z,-3.05
2022-12-18T18:48:37.843Z,-3.19
2022-12-18T18:51:07.019Z,-3.28
2022-12-18T18:53:38.253Z,-3.35
2022-12-18T18:56:37.739Z,-3.42
2022-12-18T18:58:52.128Z,-3.32
2022-12-18T19:01:19.606Z,-3.32
2022-12-18T19:03:46.265Z,-3.09
2022-12-18T19:06:14.362Z,-3.01
2022-12-18T19:08:41.070Z,-2.93
2022-12-18T19:11:31.737Z,-3.02
2022-12-18T19:14:03.324Z,-3.01
2022-12-18T19:16:31.882Z,-3.02
2022-12-18T19:19:01.520Z,-2.94
2022-12-18T19:21:28.913Z,-2.96
2022-12-18T19:23:57.939Z,-3.44
2022-12-18T19:26:27.805Z,-3.39
2022-12-18T19:28:54.644Z,-3.27
2022-12-18T19:31:25.435Z,-3.08
2022-12-18T19:33:53.658Z,-3.13
2022-12-18T19:36:22.491Z,-3.31
2022-12-18T19:38:50.282Z,-3.41
2022-12-18T19:41:17.839Z,-3.41
2022-12-18T19:43:45.684Z,-3.09
2022-12-18T19:46:17.240Z,-3.26
2022-12-18T19:48:45.157Z,-3.29
2022-12-18T19:51:14.617Z,-3.25
2022-12-18T19:53:41.084Z,-3.15
2022-12-18T19:56:08.094Z,-3.28
2022-12-18T19:58:34.707Z,-3.64
2022-12-18T20:01:01.622Z,-3.63
2022-12-18T20:03:32.697Z,-3.39
2022-12-18T20:06:14.770Z,-3.52
2022-12-18T20:08:41.535Z,-3.20
2022-12-18T20:11:07.951Z,-3.42
2022-12-18T20:13:34.664Z,-3.10
2022-12-18T20:16:01.243Z,-2.96
2022-12-18T20:18:28.029Z,-2.92
2022-12-18T20:20:55.505Z,-2.80
2022-12-18T20:23:24.992Z,-2.58
2022-12-18T20:25:54.520Z,-2.41
2022-12-18T20:28:21.693Z,-2.45
2022-12-18T20:30:48.191Z,-2.42
2022-12-18T20:33:15.149Z,-2.69
2022-12-18T20:35:41.507Z,-2.46
2022-12-18T20:38:08.020Z,-2.37
2022-12-18T20:40:35.937Z,-2.65
2022-12-18T20:43:02.812Z,-2.61
2022-12-18T20:45:29.262Z,-2.77
2022-12-18T20:47:55.689Z,-2.70
2022-12-18T20:50:22.126Z,-2.61
2022-12-18T20:52:48.549Z,-2.60
2022-12-18T20:55:14.967Z,-2.73
2022-12-18T20:57:41.353Z,-3.36
2022-12-18T21:00:08.135Z,-3.48
2022-12-18T21:02:35.740Z,-3.36
2022-12-18T21:05:02.345Z,-2.92
2022-12-18T21:07:28.804Z,-2.64
2022-12-18T21:09:55.259Z,-2.30
2022-12-18T21:12:40.477Z,-2.29
2022-12-18T21:15:11.968Z,-2.27
2022-12-18T21:17:44.544Z,-2.25
2022-12-18T21:20:17.565Z,-2.24
2022-12-18T21:22:45.032Z,-2.12
2022-12-18T21:25:11.455Z,-2.09
2022-12-18T21:27:37.870Z,-2.02
2022-12-18T21:30:04.656Z,-2.11
2022-12-18T21:32:33.431Z,-1.99
2022-12-18T21:35:00.261Z,-1.90
2022-12-18T21:37:26.759Z,-1.90
2022-12-18T21:39:53.267Z,-1.85
2022-12-18T21:42:38.622Z,-2.26
2022-12-18T21:45:05.161Z,-2.12
2022-12-18T21:47:31.604Z,-2.03
2022-12-18T21:49:58.061Z,-2.24
2022-12-18T21:52:31.359Z,-2.11
2022-12-18T21:55:03.272Z,-2.27
2022-12-18T21:57:34.723Z,-2.28
2022-12-18T22:00:02.117Z,-2.27
2022-12-18T22:02:39.351Z,-2.25
2022-12-18T22:05:06.334Z,-2.36
2022-12-18T22:07:33.466Z,-2.35
2022-12-18T22:09:59.932Z,-2.27
2022-12-18T22:12:43.299Z,-2.17
2022-12-18T22:15:11.867Z,-2.27
2022-12-18T22:17:40.348Z,-2.24
2022-12-18T22:20:08.823Z,-2.38
2022-12-18T22:22:35.248Z,-2.06
2022-12-18T22:25:02.292Z,-2.06
2022-12-18T22:27:28.831Z,-2.10
2022-12-18T22:30:04.387Z,-2.02
2022-12-18T22:32:34.975Z,-1.98
2022-12-18T22:35:08.043Z,-1.90
2022-12-18T22:37:37.183Z,-1.85
2022-12-18T22:40:05.119Z,-1.95
2022-12-18T22:42:32.526Z,-1.65
2022-12-18T22:45:00.274Z,-1.64
2022-12-18T22:47:30.128Z,-1.79
2022-12-18T22:49:57.392Z,-2.09
2022-12-18T22:52:25.025Z,-2.04
2022-12-18T22:54:53.120Z,-2.14
2022-12-18T22:57:20.500Z,-2.14
2022-12-18T22:59:46.896Z,-1.98
2022-12-18T23:02:13.471Z,-1.90
2022-12-18T23:04:40.059Z,-1.83
2022-12-18T23:07:06.563Z,-1.91
2022-12-18T23:09:33.159Z,-1.86
2022-12-18T23:11:59.959Z,-1.97
2022-12-18T23:14:26.710Z,-1.93
2022-12-18T23:16:53.381Z,-1.99
2022-12-18T23:19:20.437Z,-1.98
2022-12-18T23:21:47.018Z,-2.04
2022-12-18T23:24:13.528Z,-1.93
2022-12-18T23:26:40.035Z,-1.83
2022-12-18T23:29:06.490Z,-1.83
2022-12-18T23:31:34.035Z,-1.72
2022-12-18T23:34:01.408Z,-1.77
2022-12-18T23:36:28.269Z,-1.77
2022-12-18T23:38:57.593Z,-1.51
2022-12-18T23:41:25.459Z,-1.43
2022-12-18T23:43:52.381Z,-1.41
2022-12-18T23:46:19.055Z,-1.63
2022-12-18T23:48:45.875Z,-1.81
2022-12-18T23:51:13.810Z,-1.97
2022-12-18T23:53:40.658Z,-2.05
2022-12-18T23:56:08.466Z,-1.91
2022-12-18T23:58:35.861Z,-1.87
